Flight Track Log - Related Links

Times and Time Zones

All times are in EDT time to prevent confusion due to time zone crossing. See the EWG3269 flight status page for this flight to view local times or setup timezone preferences in your user account.

Time Position Orientation Groundspeed Altitude Reporting Facility
EDT Latitude Longitude Course Direction KTS MPH feet Rate Location/Type
Wed 02:12:00 PM 47.0363 5.4529 11° North  Level Estimated
Wed 02:13:00 PM 47.1454 5.4839 11° North  Level Estimated
Wed 02:14:00 PM 47.2545 5.5149 11° North  Level Estimated
Wed 02:15:00 PM 47.3636 5.5462 11° North  Level Estimated
Wed 02:16:00 PM 47.4727 5.5775 11° North  Level Estimated
Wed 02:17:00 PM 47.5817 5.6090 11° North  Level Estimated
Wed 02:18:00 PM 47.6908 5.6406 11° North  Level Estimated
Wed 02:19:00 PM 47.7999 5.6724 11° North  Level Estimated
Wed 02:20:00 PM 47.9089 5.7042 11° North  Level Estimated
Wed 02:21:00 PM 48.0180 5.7363 11° North  Level Estimated
Wed 02:22:00 PM 48.1270 5.7684 11° North  Level Estimated
Wed 02:23:00 PM 48.2360 5.8007 11° North  Level Estimated
Wed 02:24:00 PM 48.3450 5.8331 11° North  Level Estimated
Wed 02:25:00 PM 48.4540 5.8657 11° North  Level Estimated
Wed 02:26:00 PM 48.5630 5.8984 11° North  Level Estimated
Wed 02:27:00 PM 48.6720 5.9313 11° North  Level Estimated
Wed 02:28:00 PM 48.7810 5.9643 11° North  Level Estimated
Wed 02:29:00 PM 48.8899 5.9974 11° North  Level Estimated
Wed 02:30:00 PM 48.9989 6.0307 11° North  Level Estimated
Wed 02:31:00 PM 49.1078 6.0641 11° North  Level Estimated
Wed 02:32:00 PM 49.2168 6.0977 11° North  Level Estimated
Wed 02:33:00 PM 49.3257 6.1314 11° North  Level Estimated
Wed 02:34:00 PM 49.4491 6.1698 11° North  Level Estimated
Wed 02:35:00 PM 49.5726 6.2084 11° North  Level Estimated
Wed 02:36:00 PM 49.6960 6.2472 11° North  Level Estimated
Wed 02:37:00 PM 49.8194 6.2861 12° North  Level Estimated
Wed 02:38:00 PM 49.9428 6.3253 12° North  Level Estimated
Wed 02:39:00 PM 50.0661 6.3647 12° North  Level Estimated
Wed 02:40:00 PM 50.1895 6.4043 12° North  Level Estimated
Wed 02:41:00 PM 50.3128 6.4441 12° North  Level Estimated
Wed 02:42:00 PM 50.4362 6.4841 12° North  Level Estimated
Wed 02:43:00 PM 50.5595 6.5243 12° North  Level Estimated
Wed 02:44:00 PM 50.6828 6.5647 12° North  Level Estimated
Wed 02:45:00 PM 50.8061 6.6053 12° North  Level Estimated
Wed 02:46:00 PM 50.9294 6.6462 12° North  Level Estimated
Wed 02:47:00 PM 51.0526 6.6873 12° North  Level Estimated
Wed 02:48:00 PM 51.1759 6.7285 12° North  Level Estimated
Wed 02:49:00 PM 51.2895 6.7668 12° North  Level Estimated
Wed 02:50:00 PM 51.2895 6.7668 314° West  Level Estimated
Wed 02:51:00 PM 51.2895 6.7668 46° Northeast  Level Estimated
Wed 02:52:00 PM 51.2895 6.7668 314° West  Level Estimated
Wed 02:53:00 PM 51.2895 6.7668 46° Northeast  Level Estimated
Wed 02:54:00 PM 51.2895 6.7668 314° West  Level Estimated
Wed 02:55:00 PM 51.2895 6.7668 46° Northeast  Level Estimated
Wed 02:56:00 PM 51.2895 6.7668 314° West  Level Estimated
Wed 02:57:00 PM 51.2895 6.7668 46° Northeast  Level Estimated
Wed 02:58:00 PM 51.2895 6.7668 314° West  Level Estimated
Wed 02:59:00 PM 51.2895 6.7668 46° Northeast  Level Estimated
Wed 03:00:00 PM 51.2895 6.7668 314° West  Level Estimated
Wed 03:01:00 PM 51.2895 6.7668 46° Northeast  Level Estimated

Login

Don't have an account? Register now (free) for customized features, flight alerts, and more!